Aviation Digital Data Service (ADDS)

Output produced by METARs form (1355 UTC 10 July 2020)
found at http://www.aviationweather.gov/metar/data/
 
KSSI 101353Z AUTO 28006KT 10SM CLR 30/26 A2993 RMK AO2 SLP135 T03000256
KSSI 101158Z 1012/1112 30008KT P6SM SCT030 BKN090 
     FM101900 12011KT P6SM VCTS SCT045CB SCT250 
     PROB30 1021/1101 VRB15G25KT 3SM +TSRA BR SCT025 BKN040CB OVC100 
     FM110200 23006KT P6SM VCSH FEW050 SCT100 OVC250